METAR Data
IDs: Format: Raw Decoded Include TAF

Data at: 2336 UTC 19 Apr 2021

KORS 192335Z AUTO 36004KT 10SM CLR 18/03 A3019 RMK AO2